Time;durP1;ratioP1;P1;durP2;ratioP2;P2;SDS_P1;SDS_P2;PMS_P1;PMS_P2;Temp;Humidity;BMP_temperature;BMP_pressure;BME280_temperature;BME280_humidity;BME280_pressure;Samples;Min_cycle;Max_cycle;Signal;HPM_P1;HPM_P2
2024/05/06 00:01:46;;;;;;;;;;;11.20;99.90;;;;;;4998814;28;20769;-83
2024/05/06 00:04:13;;;;;;;;;;;11.20;99.90;;;;;;5006329;28;19928;-83
2024/05/06 00:06:40;;;;;;;;;;;11.30;99.90;;;;;;5005544;28;19921;-82
2024/05/06 00:09:07;;;;;;;;;;;11.30;99.90;;;;;;5013637;28;19917;-83
2024/05/06 00:11:32;;;;;;;;;;;11.40;99.90;;;;;;5027223;28;19922;-82
2024/05/06 00:13:58;;;;;;;;;;;11.40;99.90;;;;;;5017125;28;20081;-83
2024/05/06 00:16:23;;;;;;;;;;;11.40;99.90;;;;;;5027840;28;19924;-85
2024/05/06 00:18:49;;;;;;;;;;;11.50;99.90;;;;;;5019793;28;19932;-83
2024/05/06 00:21:14;;;;;;;;;;;11.60;99.90;;;;;;5027075;28;19944;-83
2024/05/06 00:23:40;;;;;;;;;;;11.60;99.90;;;;;;5011861;28;20384;-84
2024/05/06 00:26:05;;;;;;;;;;;11.60;99.90;;;;;;5027149;28;19932;-84
2024/05/06 00:28:31;;;;;;;;;;;11.60;99.90;;;;;;4997848;28;20024;-83
2024/05/06 00:30:56;;;;;;;;;;;11.60;99.90;;;;;;5003215;28;20984;-83
2024/05/06 00:33:22;;;;;;;;;;;11.60;99.90;;;;;;5002380;28;19928;-83
2024/05/06 00:35:47;;;;;;;;;;;11.70;99.90;;;;;;5006485;28;19940;-83
2024/05/06 00:38:14;;;;;;;;;;;11.70;99.90;;;;;;4996159;28;20474;-83
2024/05/06 00:40:39;;;;;;;;;;;11.70;99.90;;;;;;5008850;28;20309;-83
2024/05/06 00:43:05;;;;;;;;;;;11.70;99.90;;;;;;4996386;28;19967;-83
2024/05/06 00:45:30;;;;;;;;;;;11.70;99.90;;;;;;5006965;28;20357;-83
2024/05/06 00:47:57;;;;;;;;;;;11.70;99.90;;;;;;5008187;28;20618;-83
2024/05/06 00:50:23;;;;;;;;;;;11.70;99.90;;;;;;4991529;28;19914;-83
2024/05/06 00:52:49;;;;;;;;;;;11.60;99.90;;;;;;5008600;28;19925;-83
2024/05/06 00:55:15;;;;;;;;;;;11.60;99.90;;;;;;4999479;28;19964;-83
2024/05/06 00:57:40;;;;;;;;;;;11.70;99.90;;;;;;5005023;28;19945;-84
2024/05/06 01:00:07;;;;;;;;;;;11.70;99.90;;;;;;4998388;28;20392;-84
2024/05/06 01:02:33;;;;;;;;;;;11.60;99.90;;;;;;5014935;28;19921;-82
2024/05/06 01:04:59;;;;;;;;;;;11.70;99.90;;;;;;4994005;28;19960;-83
2024/05/06 01:07:25;;;;;;;;;;;11.70;99.90;;;;;;5011262;28;20002;-83
2024/05/06 01:09:50;;;;;;;;;;;11.70;99.90;;;;;;4994998;28;20402;-84
2024/05/06 01:12:17;;;;;;;;;;;11.70;99.90;;;;;;5004365;28;19917;-84
2024/05/06 01:14:42;;;;;;;;;;;11.80;99.90;;;;;;4995723;28;20404;-83
2024/05/06 01:17:08;;;;;;;;;;;11.80;99.90;;;;;;5003888;28;20040;-83
2024/05/06 01:19:33;;;;;;;;;;;11.80;99.90;;;;;;4996042;28;20051;-83
2024/05/06 01:22:01;;;;;;;;;;;11.80;99.90;;;;;;5008668;28;19921;-84
2024/05/06 01:24:28;;;;;;;;;;;11.80;99.90;;;;;;4988880;28;19962;-84
2024/05/06 01:26:53;;;;;;;;;;;11.80;99.90;;;;;;5011376;28;20339;-86
2024/05/06 01:29:19;;;;;;;;;;;11.70;99.90;;;;;;5013346;28;20274;-85
2024/05/06 01:31:44;;;;;;;;;;;11.80;99.90;;;;;;4991566;28;20027;-85
2024/05/06 01:34:10;;;;;;;;;;;11.80;99.90;;;;;;5010662;28;19913;-86
2024/05/06 01:36:35;;;;;;;;;;;11.80;99.90;;;;;;4997552;28;19925;-86
2024/05/06 01:39:01;;;;;;;;;;;11.80;99.90;;;;;;5003728;28;19921;-84
2024/05/06 01:41:26;;;;;;;;;;;11.80;99.90;;;;;;5015063;28;19959;-85
2024/05/06 01:43:52;;;;;;;;;;;11.70;99.90;;;;;;5005439;28;20438;-86
2024/05/06 01:46:18;;;;;;;;;;;11.70;99.90;;;;;;4998382;28;19921;-86
2024/05/06 01:48:43;;;;;;;;;;;11.70;99.90;;;;;;5011173;28;19975;-85
2024/05/06 01:51:09;;;;;;;;;;;11.70;99.90;;;;;;4995017;28;19929;-85
2024/05/06 01:53:36;;;;;;;;;;;11.70;99.90;;;;;;5008777;28;19964;-84
2024/05/06 01:56:01;;;;;;;;;;;11.60;99.90;;;;;;4996814;28;19975;-84
2024/05/06 01:58:27;;;;;;;;;;;11.60;99.90;;;;;;5003707;28;20016;-84
2024/05/06 02:00:52;;;;;;;;;;;11.70;99.90;;;;;;4997897;28;19927;-85
2024/05/06 02:03:18;;;;;;;;;;;11.70;99.90;;;;;;5006267;28;19930;-84
2024/05/06 02:05:44;;;;;;;;;;;11.70;99.90;;;;;;4995903;28;20464;-85
2024/05/06 02:08:09;;;;;;;;;;;11.70;99.90;;;;;;5009700;28;19924;-84
2024/05/06 02:10:35;;;;;;;;;;;11.70;99.90;;;;;;5002561;28;20012;-84
2024/05/06 02:13:01;;;;;;;;;;;11.70;99.90;;;;;;4997240;28;20365;-84
2024/05/06 02:15:26;;;;;;;;;;;11.70;99.90;;;;;;5005010;28;20398;-84
2024/05/06 02:17:51;;;;;;;;;;;11.70;99.90;;;;;;4993579;28;19926;-84
2024/05/06 02:20:17;;;;;;;;;;;11.70;99.90;;;;;;5007951;28;21071;-84
2024/05/06 02:22:43;;;;;;;;;;;11.80;99.90;;;;;;4991249;28;19975;-85
2024/05/06 02:25:08;;;;;;;;;;;11.70;99.90;;;;;;4999664;28;19928;-84
2024/05/06 02:27:34;;;;;;;;;;;11.70;99.90;;;;;;4996972;28;19913;-84
2024/05/06 02:29:59;;;;;;;;;;;11.70;99.90;;;;;;5003380;28;19943;-84
2024/05/06 02:32:25;;;;;;;;;;;11.60;99.90;;;;;;4994093;28;20262;-84
2024/05/06 02:34:50;;;;;;;;;;;11.50;99.90;;;;;;5010210;28;19921;-85
2024/05/06 02:37:16;;;;;;;;;;;11.50;99.90;;;;;;4997498;28;19979;-83
2024/05/06 02:39:41;;;;;;;;;;;11.40;99.90;;;;;;5016005;28;19913;-84
2024/05/06 02:42:07;;;;;;;;;;;11.40;99.90;;;;;;4997554;28;19922;-84
2024/05/06 02:44:32;;;;;;;;;;;11.30;99.90;;;;;;5001305;28;20322;-84
2024/05/06 02:46:58;;;;;;;;;;;11.20;99.90;;;;;;5007292;28;19929;-84
2024/05/06 02:49:23;;;;;;;;;;;11.20;99.90;;;;;;5010669;28;19921;-84
2024/05/06 02:51:49;;;;;;;;;;;11.20;99.90;;;;;;5007111;28;19929;-85
2024/05/06 02:54:15;;;;;;;;;;;11.20;99.90;;;;;;4998481;28;19921;-84
2024/05/06 02:56:40;;;;;;;;;;;11.10;99.90;;;;;;5004893;28;19917;-84
2024/05/06 02:59:06;;;;;;;;;;;11.10;99.90;;;;;;4995207;28;19922;-84
2024/05/06 03:01:31;;;;;;;;;;;11.00;99.90;;;;;;5009376;28;19914;-84
2024/05/06 03:03:57;;;;;;;;;;;11.00;99.90;;;;;;4994860;28;20000;-84
2024/05/06 03:06:22;;;;;;;;;;;11.00;99.90;;;;;;5014606;28;19975;-84
2024/05/06 03:08:48;;;;;;;;;;;11.00;99.90;;;;;;5019192;28;19924;-84
2024/05/06 03:11:13;;;;;;;;;;;10.90;99.90;;;;;;5018232;28;19921;-84
2024/05/06 03:13:39;;;;;;;;;;;11.00;99.90;;;;;;5004386;28;20525;-84
2024/05/06 03:16:05;;;;;;;;;;;11.00;99.90;;;;;;5015077;28;20361;-84
2024/05/06 03:18:30;;;;;;;;;;;10.90;99.90;;;;;;4999099;28;19979;-84
2024/05/06 03:20:56;;;;;;;;;;;10.90;99.90;;;;;;5011697;28;20009;-83
2024/05/06 03:23:22;;;;;;;;;;;10.90;99.90;;;;;;5000711;28;19927;-84
2024/05/06 03:25:47;;;;;;;;;;;10.90;99.90;;;;;;5006500;28;19913;-84
2024/05/06 03:28:13;;;;;;;;;;;10.80;99.90;;;;;;5006561;28;20675;-85
2024/05/06 03:30:38;;;;;;;;;;;10.80;99.90;;;;;;4996489;28;19967;-85
2024/05/06 03:33:04;;;;;;;;;;;10.70;99.90;;;;;;5011547;28;19936;-83
2024/05/06 03:35:29;;;;;;;;;;;10.70;99.90;;;;;;4999824;28;19933;-85
2024/05/06 03:37:55;;;;;;;;;;;10.70;99.90;;;;;;5005097;28;20499;-84
2024/05/06 03:40:21;;;;;;;;;;;10.70;99.90;;;;;;5000905;28;19925;-84
2024/05/06 03:42:46;;;;;;;;;;;10.70;99.90;;;;;;5005371;28;20317;-84
2024/05/06 03:45:12;;;;;;;;;;;10.70;99.90;;;;;;4993392;28;19975;-84
2024/05/06 03:47:37;;;;;;;;;;;10.80;99.90;;;;;;5011170;28;20004;-84
2024/05/06 03:50:03;;;;;;;;;;;10.70;99.90;;;;;;4999484;28;19923;-84
2024/05/06 03:52:28;;;;;;;;;;;10.70;99.90;;;;;;5005314;28;20023;-84
2024/05/06 03:54:54;;;;;;;;;;;10.70;99.90;;;;;;4998949;28;19921;-84
2024/05/06 03:57:20;;;;;;;;;;;10.70;99.90;;;;;;5003318;28;20016;-83
2024/05/06 03:59:46;;;;;;;;;;;10.60;99.90;;;;;;4998448;28;19921;-84
2024/05/06 04:02:11;;;;;;;;;;;10.60;99.90;;;;;;5001176;28;20038;-83
2024/05/06 04:04:37;;;;;;;;;;;10.60;99.90;;;;;;4993480;28;20009;-83
2024/05/06 04:07:03;;;;;;;;;;;10.60;99.90;;;;;;5009440;28;20294;-84
2024/05/06 04:09:28;;;;;;;;;;;10.60;99.90;;;;;;5010948;28;20000;-83
2024/05/06 04:11:54;;;;;;;;;;;10.50;99.90;;;;;;4982375;28;20380;-83
2024/05/06 04:14:19;;;;;;;;;;;10.50;99.90;;;;;;5007887;28;19922;-84
2024/05/06 04:16:45;;;;;;;;;;;10.50;99.90;;;;;;4995338;28;19943;-84
2024/05/06 04:19:11;;;;;;;;;;;10.50;99.90;;;;;;5006453;28;20203;-84
2024/05/06 04:21:37;;;;;;;;;;;10.50;99.90;;;;;;4998110;28;19956;-84
2024/05/06 04:27:18;;;;;;;;;;;10.60;99.90;;;;;;5004341;28;20366;-84
2024/05/06 04:27:19;;;;;;;;;;;10.60;99.90;;;;;;4994288;28;19987;-84
2024/05/06 04:29:34;;;;;;;;;;;10.60;99.90;;;;;;5008564;28;20382;-84
2024/05/06 04:31:59;;;;;;;;;;;10.60;99.90;;;;;;4995203;28;19917;-84
2024/05/06 04:34:25;;;;;;;;;;;10.60;99.90;;;;;;5011101;28;19976;-84
2024/05/06 04:36:51;;;;;;;;;;;10.60;99.90;;;;;;5009950;28;19957;-84
2024/05/06 04:39:16;;;;;;;;;;;10.60;99.90;;;;;;5026322;28;19920;-84
2024/05/06 04:41:42;;;;;;;;;;;10.60;99.90;;;;;;5009185;28;20020;-85
2024/05/06 04:44:07;;;;;;;;;;;10.60;99.90;;;;;;5005356;28;19913;-84
2024/05/06 04:46:33;;;;;;;;;;;10.60;99.90;;;;;;5001027;28;20389;-84
2024/05/06 04:48:58;;;;;;;;;;;10.60;99.90;;;;;;5008945;28;20362;-84
2024/05/06 04:51:24;;;;;;;;;;;10.60;99.90;;;;;;4992175;28;19948;-84
2024/05/06 04:53:49;;;;;;;;;;;10.60;99.90;;;;;;5007262;28;19998;-83
2024/05/06 04:56:15;;;;;;;;;;;10.60;99.90;;;;;;5001302;28;20411;-83
2024/05/06 04:58:40;;;;;;;;;;;10.60;99.90;;;;;;4998729;28;19925;-83
2024/05/06 05:01:06;;;;;;;;;;;10.60;99.90;;;;;;5006815;28;19964;-83
2024/05/06 05:03:31;;;;;;;;;;;10.60;99.90;;;;;;4998429;28;19967;-84
2024/05/06 05:05:57;;;;;;;;;;;10.70;99.90;;;;;;5008714;28;19920;-85
2024/05/06 05:08:22;;;;;;;;;;;10.70;99.90;;;;;;4999457;28;21017;-83
2024/05/06 05:10:48;;;;;;;;;;;10.70;99.90;;;;;;5002691;28;20020;-83
2024/05/06 05:13:13;;;;;;;;;;;10.80;99.90;;;;;;4996566;28;20027;-84
2024/05/06 05:15:39;;;;;;;;;;;10.80;99.90;;;;;;5007449;28;20358;-84
2024/05/06 05:18:05;;;;;;;;;;;10.80;99.90;;;;;;4988483;28;20019;-84
2024/05/06 05:20:30;;;;;;;;;;;10.80;99.90;;;;;;4996975;28;19920;-84
2024/05/06 05:22:56;;;;;;;;;;;10.90;99.90;;;;;;4997645;28;19913;-85
2024/05/06 05:25:21;;;;;;;;;;;10.90;99.90;;;;;;5003337;28;20419;-84
2024/05/06 05:27:47;;;;;;;;;;;10.90;99.90;;;;;;4987295;28;21461;-85
2024/05/06 05:30:12;;;;;;;;;;;11.00;99.90;;;;;;5002972;28;20007;-84
2024/05/06 05:32:38;;;;;;;;;;;10.90;99.90;;;;;;4992692;28;20373;-84
2024/05/06 05:35:05;;;;;;;;;;;10.90;99.90;;;;;;5006917;28;19920;-84
2024/05/06 05:37:31;;;;;;;;;;;10.90;99.90;;;;;;5006160;28;19913;-84
2024/05/06 05:39:57;;;;;;;;;;;10.80;99.90;;;;;;4999168;28;20460;-84
2024/05/06 05:42:22;;;;;;;;;;;10.80;99.90;;;;;;5008059;28;19964;-84
2024/05/06 05:44:48;;;;;;;;;;;10.80;99.90;;;;;;4990335;28;19921;-84
2024/05/06 05:47:13;;;;;;;;;;;10.80;99.90;;;;;;5008616;28;20012;-86
2024/05/06 05:49:39;;;;;;;;;;;10.70;99.90;;;;;;4996915;28;19924;-86
2024/05/06 05:52:05;;;;;;;;;;;10.70;99.90;;;;;;5002420;28;19949;-86
2024/05/06 05:54:30;;;;;;;;;;;10.70;99.90;;;;;;4998398;28;19913;-85
2024/05/06 05:56:56;;;;;;;;;;;10.70;99.90;;;;;;5004061;28;19925;-85
2024/05/06 05:59:21;;;;;;;;;;;10.60;99.90;;;;;;4992526;28;19944;-86
2024/05/06 06:01:47;;;;;;;;;;;10.60;99.90;;;;;;5009128;28;20339;-86
2024/05/06 06:04:13;;;;;;;;;;;10.60;99.90;;;;;;4987755;28;20320;-85
2024/05/06 06:06:39;;;;;;;;;;;10.60;99.90;;;;;;5012119;28;19964;-85
2024/05/06 06:09:05;;;;;;;;;;;10.60;99.90;;;;;;5017918;28;20343;-85
2024/05/06 06:11:30;;;;;;;;;;;10.60;99.90;;;;;;5006759;28;19913;-85
2024/05/06 06:13:56;;;;;;;;;;;10.60;99.90;;;;;;4991859;28;19917;-86
2024/05/06 06:16:21;;;;;;;;;;;10.60;99.90;;;;;;5010090;28;19940;-85
2024/05/06 06:18:47;;;;;;;;;;;10.70;99.90;;;;;;5008397;28;19921;-86
2024/05/06 06:21:12;;;;;;;;;;;10.70;99.90;;;;;;5000516;28;19961;-85
2024/05/06 06:23:38;;;;;;;;;;;10.70;99.90;;;;;;5021178;28;19914;-84
2024/05/06 06:26:04;;;;;;;;;;;10.70;99.90;;;;;;5003656;28;20289;-84
2024/05/06 06:28:29;;;;;;;;;;;10.70;99.90;;;;;;5009328;28;19928;-84
2024/05/06 06:30:55;;;;;;;;;;;10.70;99.90;;;;;;4992894;28;19923;-84
2024/05/06 06:33:20;;;;;;;;;;;10.80;99.90;;;;;;5012782;28;19972;-84
2024/05/06 06:35:46;;;;;;;;;;;10.80;99.90;;;;;;5002780;28;19925;-83
2024/05/06 06:38:11;;;;;;;;;;;10.80;99.90;;;;;;5007506;28;20259;-83
2024/05/06 06:40:37;;;;;;;;;;;10.90;99.90;;;;;;4999179;28;20333;-84
2024/05/06 06:43:03;;;;;;;;;;;11.00;99.90;;;;;;5011191;28;19999;-83
2024/05/06 06:45:28;;;;;;;;;;;11.10;99.90;;;;;;4993393;28;19928;-84
2024/05/06 06:47:55;;;;;;;;;;;11.20;99.90;;;;;;5013240;28;19922;-84
2024/05/06 06:50:20;;;;;;;;;;;11.20;99.90;;;;;;5000147;28;20328;-83
2024/05/06 06:52:46;;;;;;;;;;;11.30;99.90;;;;;;5012179;28;19936;-84
2024/05/06 06:55:12;;;;;;;;;;;11.30;99.90;;;;;;5000653;28;19990;-84
2024/05/06 06:57:37;;;;;;;;;;;11.40;99.90;;;;;;5003722;28;19921;-83
2024/05/06 07:00:03;;;;;;;;;;;11.60;99.90;;;;;;5010931;28;19922;-83
2024/05/06 07:02:28;;;;;;;;;;;11.70;99.90;;;;;;4997587;28;20191;-84
2024/05/06 07:04:54;;;;;;;;;;;11.70;99.90;;;;;;5008418;28;19921;-82
2024/05/06 07:07:19;;;;;;;;;;;11.80;99.90;;;;;;5000090;28;19921;-83
2024/05/06 07:09:45;;;;;;;;;;;11.80;99.90;;;;;;5012856;28;20574;-84
2024/05/06 07:12:13;;;;;;;;;;;11.80;99.90;;;;;;4997201;28;19932;-84
2024/05/06 07:14:38;;;;;;;;;;;11.80;99.90;;;;;;5011401;28;19980;-83
2024/05/06 07:17:04;;;;;;;;;;;11.80;99.90;;;;;;4998205;28;20037;-84
2024/05/06 07:19:30;;;;;;;;;;;11.70;99.90;;;;;;5010409;28;20004;-84
2024/05/06 07:21:55;;;;;;;;;;;11.80;99.90;;;;;;4995776;28;19929;-84
2024/05/06 07:24:21;;;;;;;;;;;11.80;99.90;;;;;;5002670;28;19921;-84
2024/05/06 07:26:48;;;;;;;;;;;11.80;99.90;;;;;;4995067;28;20081;-83
2024/05/06 07:29:14;;;;;;;;;;;11.80;99.90;;;;;;5006974;28;19918;-84
2024/05/06 07:31:39;;;;;;;;;;;11.80;99.90;;;;;;4993086;28;19928;-84
2024/05/06 07:34:05;;;;;;;;;;;11.80;99.90;;;;;;5008213;28;20321;-84
2024/05/06 07:36:30;;;;;;;;;;;11.80;99.90;;;;;;5016276;28;19941;-84
2024/05/06 07:38:56;;;;;;;;;;;11.80;99.90;;;;;;5006672;28;19944;-84
2024/05/06 07:41:21;;;;;;;;;;;11.90;99.90;;;;;;5013443;28;19925;-85
2024/05/06 07:43:47;;;;;;;;;;;11.90;99.90;;;;;;4996874;28;19992;-83
2024/05/06 07:46:12;;;;;;;;;;;12.00;99.90;;;;;;5007483;28;19921;-83
2024/05/06 07:48:38;;;;;;;;;;;12.20;99.90;;;;;;4998518;28;19922;-84
2024/05/06 07:51:04;;;;;;;;;;;12.40;99.90;;;;;;5004793;28;19921;-84
2024/05/06 07:53:29;;;;;;;;;;;12.40;99.90;;;;;;4998546;28;19925;-83
2024/05/06 07:55:55;;;;;;;;;;;12.40;99.90;;;;;;5009028;28;19925;-83
2024/05/06 07:58:21;;;;;;;;;;;12.40;99.90;;;;;;4989749;28;20226;-84
2024/05/06 08:00:47;;;;;;;;;;;12.50;99.90;;;;;;5008687;28;19917;-84
2024/05/06 08:03:12;;;;;;;;;;;12.50;99.90;;;;;;4999614;28;20354;-84
2024/05/06 08:05:38;;;;;;;;;;;12.50;99.90;;;;;;5009115;28;19919;-83
2024/05/06 08:08:03;;;;;;;;;;;12.60;99.90;;;;;;4985617;28;20079;-83
2024/05/06 08:10:29;;;;;;;;;;;12.70;99.90;;;;;;5008676;28;20028;-83
2024/05/06 08:12:55;;;;;;;;;;;12.90;99.90;;;;;;4993560;28;19921;-83
2024/05/06 08:15:20;;;;;;;;;;;13.00;99.90;;;;;;5009840;28;19967;-84
2024/05/06 08:17:46;;;;;;;;;;;12.90;99.90;;;;;;4993003;28;19913;-83
2024/05/06 08:20:11;;;;;;;;;;;13.00;99.90;;;;;;4995493;28;19921;-83
2024/05/06 08:22:37;;;;;;;;;;;13.00;99.90;;;;;;5007090;28;20512;-83
2024/05/06 08:25:02;;;;;;;;;;;13.10;99.90;;;;;;4994980;28;20419;-83
2024/05/06 08:27:28;;;;;;;;;;;13.20;99.90;;;;;;5003216;28;19945;-84
2024/05/06 08:29:53;;;;;;;;;;;13.20;99.90;;;;;;4993764;28;19914;-82
2024/05/06 08:32:20;;;;;;;;;;;13.00;99.90;;;;;;5004684;28;20400;-83
2024/05/06 08:34:46;;;;;;;;;;;13.10;99.90;;;;;;4998574;28;19925;-84
2024/05/06 08:37:11;;;;;;;;;;;13.10;99.90;;;;;;5009267;28;19928;-83
2024/05/06 08:39:37;;;;;;;;;;;13.00;99.90;;;;;;4993855;28;20266;-84
2024/05/06 08:42:02;;;;;;;;;;;12.90;99.90;;;;;;5008171;28;19921;-84
2024/05/06 08:44:30;;;;;;;;;;;12.90;99.90;;;;;;4994995;28;19926;-83
2024/05/06 08:46:57;;;;;;;;;;;12.80;99.90;;;;;;5008434;28;20306;-83
2024/05/06 08:49:23;;;;;;;;;;;12.80;99.90;;;;;;5001973;28;19928;-84
2024/05/06 08:51:49;;;;;;;;;;;12.70;99.90;;;;;;5003540;28;19929;-85
2024/05/06 08:54:16;;;;;;;;;;;12.60;99.90;;;;;;4997942;28;19922;-83
2024/05/06 08:56:42;;;;;;;;;;;12.60;99.90;;;;;;5011328;28;19917;-84
2024/05/06 08:59:09;;;;;;;;;;;12.50;99.90;;;;;;5005025;28;20383;-84
2024/05/06 09:01:35;;;;;;;;;;;12.40;99.90;;;;;;4993663;28;20271;-85
2024/05/06 09:04:00;;;;;;;;;;;12.40;99.90;;;;;;5020289;28;19913;-84
2024/05/06 09:06:26;;;;;;;;;;;12.30;99.90;;;;;;5009772;28;20361;-84
2024/05/06 09:08:52;;;;;;;;;;;12.30;99.90;;;;;;5010563;28;20431;-84
2024/05/06 09:11:17;;;;;;;;;;;12.20;99.90;;;;;;4996314;28;19948;-85
2024/05/06 09:13:45;;;;;;;;;;;12.20;99.90;;;;;;5007770;28;19967;-84
2024/05/06 09:16:12;;;;;;;;;;;12.20;99.90;;;;;;4994811;28;21936;-84
2024/05/06 09:18:37;;;;;;;;;;;12.30;99.90;;;;;;5004510;28;19928;-83
2024/05/06 09:21:05;;;;;;;;;;;12.40;99.90;;;;;;4998490;28;19921;-83
2024/05/06 09:23:31;;;;;;;;;;;12.50;99.90;;;;;;5005011;28;19928;-83
2024/05/06 09:25:57;;;;;;;;;;;12.50;99.90;;;;;;4992094;28;19913;-84
2024/05/06 09:28:22;;;;;;;;;;;12.60;99.90;;;;;;5007614;28;21088;-83
2024/05/06 09:30:48;;;;;;;;;;;12.50;99.90;;;;;;4992616;28;19926;-83
2024/05/06 09:33:17;;;;;;;;;;;12.60;99.90;;;;;;4999892;28;19967;-84
2024/05/06 09:35:43;;;;;;;;;;;12.60;99.90;;;;;;4999746;28;20279;-84
2024/05/06 09:38:11;;;;;;;;;;;12.60;99.90;;;;;;5003937;28;19932;-85
2024/05/06 09:40:39;;;;;;;;;;;12.50;99.90;;;;;;4999948;28;19921;-84
2024/05/06 09:43:08;;;;;;;;;;;12.70;99.90;;;;;;5005277;28;19928;-84
2024/05/06 09:45:34;;;;;;;;;;;12.70;99.90;;;;;;5006209;28;19999;-84
2024/05/06 09:48:03;;;;;;;;;;;12.70;99.90;;;;;;5001524;28;19960;-84
2024/05/06 09:50:29;;;;;;;;;;;12.80;99.90;;;;;;5023920;28;19929;-84
2024/05/06 09:52:54;;;;;;;;;;;12.90;99.90;;;;;;5022802;28;19921;-84
2024/05/06 09:55:20;;;;;;;;;;;12.80;99.90;;;;;;5035577;28;19921;-84
2024/05/06 09:57:46;;;;;;;;;;;12.70;99.90;;;;;;5023270;28;19921;-84
2024/05/06 10:00:13;;;;;;;;;;;12.70;99.90;;;;;;5031003;28;19918;-84
2024/05/06 10:02:40;;;;;;;;;;;12.60;99.90;;;;;;5025062;28;19913;-83
2024/05/06 10:05:05;;;;;;;;;;;12.50;99.90;;;;;;5031310;28;19964;-84
2024/05/06 10:07:31;;;;;;;;;;;12.50;99.90;;;;;;5024240;28;19905;-82
2024/05/06 10:09:57;;;;;;;;;;;12.40;99.90;;;;;;5033157;28;19918;-82
2024/05/06 10:12:34;;;;;;;;;;;12.40;99.90;;;;;;5019668;28;19985;-82
2024/05/06 10:15:00;;;;;;;;;;;12.40;99.90;;;;;;5037749;28;19929;-83
2024/05/06 10:17:35;;;;;;;;;;;12.40;99.90;;;;;;5022334;28;19933;-81
2024/05/06 10:20:05;;;;;;;;;;;12.40;99.90;;;;;;5033948;28;20276;-84
2024/05/06 10:22:31;;;;;;;;;;;12.50;99.90;;;;;;5027280;28;19905;-82
2024/05/06 10:24:57;;;;;;;;;;;12.60;99.90;;;;;;5034432;28;19905;-84
2024/05/06 10:27:22;;;;;;;;;;;12.50;99.90;;;;;;5003913;28;19926;-84
2024/05/06 10:29:48;;;;;;;;;;;12.50;99.90;;;;;;5007871;28;21039;-83
2024/05/06 10:32:16;;;;;;;;;;;12.60;99.90;;;;;;5014765;28;19925;-82
2024/05/06 10:34:43;;;;;;;;;;;12.60;99.90;;;;;;5002702;28;19922;-82
2024/05/06 10:37:13;;;;;;;;;;;12.60;99.90;;;;;;5007811;28;19926;-84
2024/05/06 10:39:42;;;;;;;;;;;12.60;99.90;;;;;;4991600;28;19920;-85
2024/05/06 10:42:09;;;;;;;;;;;12.60;99.90;;;;;;5005910;28;19921;-85
2024/05/06 10:44:42;;;;;;;;;;;12.60;99.90;;;;;;4990966;28;20318;-84
2024/05/06 10:47:07;;;;;;;;;;;12.70;99.90;;;;;;5005629;28;19987;-84
2024/05/06 10:49:33;;;;;;;;;;;12.70;99.90;;;;;;4997411;28;19968;-85
2024/05/06 10:51:59;;;;;;;;;;;12.70;99.90;;;;;;5002482;28;19972;-86
2024/05/06 10:54:24;;;;;;;;;;;12.80;99.90;;;;;;4998568;28;19976;-84
2024/05/06 10:56:50;;;;;;;;;;;12.90;99.90;;;;;;5011755;28;19960;-84
2024/05/06 10:59:17;;;;;;;;;;;12.70;99.90;;;;;;4993109;28;20369;-84
2024/05/06 11:01:42;;;;;;;;;;;12.80;99.90;;;;;;5002964;28;20040;-85
2024/05/06 11:04:08;;;;;;;;;;;12.70;99.90;;;;;;4999366;28;19922;-85
2024/05/06 11:06:34;;;;;;;;;;;12.70;99.90;;;;;;5005268;28;19956;-85
2024/05/06 11:09:02;;;;;;;;;;;12.70;99.90;;;;;;4999872;28;19921;-84
2024/05/06 11:11:28;;;;;;;;;;;12.70;99.90;;;;;;5006079;28;19921;-83
2024/05/06 11:13:54;;;;;;;;;;;12.70;99.90;;;;;;4999384;28;19928;-85
2024/05/06 11:16:20;;;;;;;;;;;12.60;99.90;;;;;;5010787;28;20424;-85
2024/05/06 11:18:46;;;;;;;;;;;12.60;99.90;;;;;;5009215;28;20100;-85
2024/05/06 11:21:16;;;;;;;;;;;12.60;99.90;;;;;;5002038;28;20846;-84
2024/05/06 11:23:42;;;;;;;;;;;12.60;99.90;;;;;;5009199;28;20377;-84
2024/05/06 11:26:08;;;;;;;;;;;12.50;99.90;;;;;;4995971;28;19924;-84
2024/05/06 11:28:33;;;;;;;;;;;12.50;99.90;;;;;;5013312;28;19948;-84
2024/05/06 11:30:59;;;;;;;;;;;12.60;99.90;;;;;;5001814;28;19948;-84
2024/05/06 11:33:24;;;;;;;;;;;12.70;99.90;;;;;;5007174;28;20646;-84
2024/05/06 11:35:50;;;;;;;;;;;12.70;99.90;;;;;;5001714;28;19925;-83
2024/05/06 11:38:17;;;;;;;;;;;12.80;99.90;;;;;;5005505;28;20020;-83
2024/05/06 11:40:44;;;;;;;;;;;12.80;99.90;;;;;;4997333;28;19918;-83
2024/05/06 11:43:10;;;;;;;;;;;12.80;99.90;;;;;;5006317;28;20460;-82
2024/05/06 11:45:35;;;;;;;;;;;12.80;99.90;;;;;;4994210;28;19921;-83
2024/05/06 11:48:01;;;;;;;;;;;12.80;99.90;;;;;;5033235;28;20013;-84
2024/05/06 11:50:26;;;;;;;;;;;12.80;99.90;;;;;;5004432;28;19971;-85
2024/05/06 11:52:52;;;;;;;;;;;12.70;99.90;;;;;;5006490;28;20692;-84
2024/05/06 11:55:19;;;;;;;;;;;12.70;99.90;;;;;;5002074;28;20483;-83
2024/05/06 11:57:45;;;;;;;;;;;12.80;99.90;;;;;;5012778;28;20375;-83
2024/05/06 12:00:13;;;;;;;;;;;12.90;99.90;;;;;;5022427;28;19968;-83
2024/05/06 12:02:40;;;;;;;;;;;12.80;99.90;;;;;;5009980;28;19913;-84
2024/05/06 12:05:06;;;;;;;;;;;12.90;99.90;;;;;;5008673;28;19925;-84
2024/05/06 12:07:31;;;;;;;;;;;13.00;99.90;;;;;;4995465;28;19928;-84
2024/05/06 12:09:57;;;;;;;;;;;12.80;99.90;;;;;;5009480;28;19921;-84
2024/05/06 12:12:23;;;;;;;;;;;12.90;99.90;;;;;;4990866;28;19948;-82
2024/05/06 12:14:49;;;;;;;;;;;13.00;99.90;;;;;;5015261;28;19921;-83
2024/05/06 12:17:14;;;;;;;;;;;13.00;99.90;;;;;;4995966;28;19922;-83
2024/05/06 12:19:40;;;;;;;;;;;13.10;99.90;;;;;;5005093;28;20296;-83
2024/05/06 12:22:05;;;;;;;;;;;13.30;99.90;;;;;;4995373;28;20388;-83
2024/05/06 12:24:31;;;;;;;;;;;13.40;99.90;;;;;;5006515;28;19917;-83
2024/05/06 12:26:56;;;;;;;;;;;13.30;99.90;;;;;;4989547;28;19921;-83
2024/05/06 12:29:22;;;;;;;;;;;13.20;99.90;;;;;;5006828;28;20815;-83
2024/05/06 12:31:47;;;;;;;;;;;13.10;99.90;;;;;;4993542;28;19959;-83
2024/05/06 12:34:13;;;;;;;;;;;13.10;99.90;;;;;;5007774;28;19921;-83
2024/05/06 12:36:38;;;;;;;;;;;13.10;99.90;;;;;;4997795;28;19953;-84
2024/05/06 12:39:04;;;;;;;;;;;13.10;99.90;;;;;;5004663;28;19917;-83
2024/05/06 12:41:30;;;;;;;;;;;13.00;99.90;;;;;;5009977;28;19922;-84
2024/05/06 12:43:55;;;;;;;;;;;13.00;99.90;;;;;;4994393;28;19917;-83
2024/05/06 12:46:21;;;;;;;;;;;13.00;99.90;;;;;;5002323;28;20071;-83
2024/05/06 12:48:47;;;;;;;;;;;13.00;99.90;;;;;;4998154;28;19921;-84
2024/05/06 12:51:13;;;;;;;;;;;12.90;99.90;;;;;;5007297;28;21394;-83
2024/05/06 12:53:38;;;;;;;;;;;13.00;99.90;;;;;;4995470;28;19914;-83
2024/05/06 12:56:04;;;;;;;;;;;13.10;99.90;;;;;;5006764;28;19976;-83
2024/05/06 12:58:29;;;;;;;;;;;13.00;99.90;;;;;;4991368;28;19921;-84
2024/05/06 13:00:55;;;;;;;;;;;13.00;99.90;;;;;;5007073;28;19921;-84
2024/05/06 13:03:24;;;;;;;;;;;13.00;99.90;;;;;;4998741;28;19913;-85
2024/05/06 13:05:50;;;;;;;;;;;12.90;99.90;;;;;;5001162;28;19956;-83
2024/05/06 13:08:16;;;;;;;;;;;12.90;99.90;;;;;;4996125;28;19913;-83
2024/05/06 13:10:41;;;;;;;;;;;13.00;99.90;;;;;;5006990;28;19928;-84
2024/05/06 13:13:07;;;;;;;;;;;13.00;99.90;;;;;;4991280;28;20304;-84
2024/05/06 13:15:32;;;;;;;;;;;13.10;99.90;;;;;;5005343;28;19925;-84
2024/05/06 13:17:58;;;;;;;;;;;13.20;99.90;;;;;;4999469;28;19948;-83
2024/05/06 13:20:26;;;;;;;;;;;13.20;99.90;;;;;;5007109;28;19928;-83
2024/05/06 13:22:52;;;;;;;;;;;13.30;99.90;;;;;;5006341;28;20281;-84
2024/05/06 13:25:17;;;;;;;;;;;13.40;99.90;;;;;;4990505;28;20381;-83
2024/05/06 13:27:43;;;;;;;;;;;13.60;99.90;;;;;;5004200;28;19957;-83
2024/05/06 13:30:11;;;;;;;;;;;13.90;99.90;;;;;;4996796;28;20601;-84
2024/05/06 13:32:36;;;;;;;;;;;14.10;99.90;;;;;;5002076;28;20250;-83
2024/05/06 13:35:02;;;;;;;;;;;14.30;99.90;;;;;;4999493;28;20032;-84
2024/05/06 13:37:28;;;;;;;;;;;14.50;99.90;;;;;;5012060;28;19925;-83
2024/05/06 13:39:53;;;;;;;;;;;14.80;99.90;;;;;;4988951;28;19921;-83
2024/05/06 13:42:21;;;;;;;;;;;15.00;99.90;;;;;;5004373;28;21236;-82
2024/05/06 13:44:47;;;;;;;;;;;14.90;99.90;;;;;;4989175;28;19921;-82
2024/05/06 13:47:13;;;;;;;;;;;15.00;99.90;;;;;;5000935;28;19947;-83
2024/05/06 13:49:38;;;;;;;;;;;15.00;99.90;;;;;;4995639;28;19913;-83
2024/05/06 13:52:04;;;;;;;;;;;15.30;99.90;;;;;;5002050;28;19925;-83
2024/05/06 13:54:30;;;;;;;;;;;15.30;99.90;;;;;;4993214;28;20357;-83
2024/05/06 13:56:56;;;;;;;;;;;15.40;99.90;;;;;;5004295;28;20554;-83
2024/05/06 13:59:21;;;;;;;;;;;15.20;99.90;;;;;;4991224;28;19949;-83
2024/05/06 14:01:47;;;;;;;;;;;15.50;99.90;;;;;;5007296;28;19924;-83
2024/05/06 14:04:12;;;;;;;;;;;16.50;99.90;;;;;;5005409;28;19921;-83
2024/05/06 14:06:38;;;;;;;;;;;17.50;99.90;;;;;;4983929;28;19925;-83
2024/05/06 14:09:04;;;;;;;;;;;18.10;99.90;;;;;;5005469;28;19931;-84